Airport View

Enter ICAO identifier to see the current METAR for that AWOS.

KFNL for example

KCQM 021335Z AUTO 23004KT 10SM SCT090 13/11 A2980 RMK AO2

2 Sep 2014 13:57

Frequency: 118.175

Phone: 218-666-2539

Other Area AWOS: KORB - KEVM - KHIB - KCDD

TAF AMD KHIB 021326Z 0213/0312 25004KT P6SM SCT001 FM021700 26010KT P6SM VCSH SCT040 BKN070 TEMPO 0219/0222 6SM -SHRA BKN040 FM030000 VRB02KT P6SM BKN070 FM030300 00000KT P6SM SCT070 TEMPO 0308/0312 2SM BR SCT003